createdAt,value
2018-11-12T00:01:39.769Z,100660.13
2018-11-12T00:04:09.608Z,100662.77
2018-11-12T00:06:39.973Z,100654.25
2018-11-12T00:09:10.327Z,100652.95
2018-11-12T00:11:40.147Z,100645.98
2018-11-12T00:14:10.427Z,100649.92
2018-11-12T00:16:40.591Z,100642.73
2018-11-12T00:19:10.588Z,100643.16
2018-11-12T00:21:40.415Z,100643.59
2018-11-12T00:24:10.133Z,100654.47
2018-11-12T00:26:39.939Z,100659.23
2018-11-12T00:29:09.647Z,100671.11
2018-11-12T00:31:39.443Z,100670.72
2018-11-12T00:34:09.145Z,100658.91
2018-11-12T00:36:38.996Z,100652.41
2018-11-12T00:39:11.574Z,100654.06
2018-11-12T00:41:42.631Z,100656.20
2018-11-12T00:44:12.580Z,100661.80
2018-11-12T00:46:42.417Z,100657.54
2018-11-12T00:49:12.135Z,100666.20
2018-11-12T00:51:41.915Z,100670.91
2018-11-12T00:54:11.718Z,100670.95
2018-11-12T00:56:41.566Z,100672.25
2018-11-12T00:59:11.406Z,100662.20
2018-11-12T01:01:41.197Z,100657.10
2018-11-12T01:04:11.025Z,100660.61
2018-11-12T01:06:40.758Z,100666.20
2018-11-12T01:09:12.018Z,100674.41
2018-11-12T01:11:41.981Z,100688.39
2018-11-12T01:14:11.711Z,100692.84
2018-11-12T01:16:41.524Z,100696.27
2018-11-12T01:19:11.347Z,100693.23
2018-11-12T01:21:41.302Z,100698.23
2018-11-12T01:24:12.157Z,100702.81
2018-11-12T01:26:41.841Z,100692.98
2018-11-12T01:29:11.548Z,100694.68
2018-11-12T01:31:41.288Z,100692.47
2018-11-12T01:34:10.966Z,100701.11
2018-11-12T01:36:40.748Z,100699.88
2018-11-12T01:39:11.694Z,100696.70
2018-11-12T01:41:42.418Z,100703.55
2018-11-12T01:44:12.395Z,100698.42
2018-11-12T01:46:42.172Z,100700.51
2018-11-12T01:49:11.906Z,100697.47
2018-11-12T01:51:42.670Z,100694.87
2018-11-12T01:54:12.378Z,100684.00
2018-11-12T01:56:42.037Z,100680.97
2018-11-12T01:59:11.794Z,100685.73
2018-11-12T02:01:41.505Z,100677.10
2018-11-12T02:04:11.239Z,100676.20
2018-11-12T02:06:41.445Z,100682.78
2018-11-12T02:09:12.555Z,100670.17
2018-11-12T02:11:42.309Z,100675.09
2018-11-12T02:14:12.215Z,100657.69
2018-11-12T02:16:41.952Z,100655.91
2018-11-12T02:19:11.855Z,100653.27
2018-11-12T02:21:42.287Z,100667.14
2018-11-12T02:24:12.046Z,100665.09
2018-11-12T02:26:41.937Z,100682.94
2018-11-12T02:29:11.668Z,100688.39
2018-11-12T02:31:41.440Z,100666.71
2018-11-12T02:34:11.128Z,100660.87
2018-11-12T02:36:40.830Z,100665.20
2018-11-12T02:39:11.462Z,100669.09
2018-11-12T02:41:41.321Z,100668.59
2018-11-12T02:44:11.033Z,100666.42
2018-11-12T02:46:40.714Z,100662.23
2018-11-12T02:49:10.436Z,100663.03
2018-11-12T02:51:40.237Z,100672.72
2018-11-12T02:54:09.937Z,100672.50
2018-11-12T02:56:39.685Z,100671.78
2018-11-12T02:59:09.393Z,100681.75
2018-11-12T03:01:39.075Z,100674.59
2018-11-12T03:04:08.901Z,100672.14
2018-11-12T03:06:38.664Z,100662.89
2018-11-12T03:09:12.549Z,100669.90
2018-11-12T03:11:42.690Z,100668.59
2018-11-12T03:14:12.361Z,100666.75
2018-11-12T03:16:42.145Z,100677.66
2018-11-12T03:19:11.844Z,100689.91
2018-11-12T03:21:42.386Z,100687.42
2018-11-12T03:24:12.113Z,100673.44
2018-11-12T03:26:41.844Z,100658.23
2018-11-12T03:29:11.815Z,100652.05
2018-11-12T03:31:41.644Z,100645.50
2018-11-12T03:34:11.454Z,100648.03
2018-11-12T03:36:41.259Z,100654.61
2018-11-12T03:39:11.517Z,100648.89
2018-11-12T03:41:41.277Z,100632.00
2018-11-12T03:44:11.161Z,100637.59
2018-11-12T03:46:41.221Z,100653.70
2018-11-12T03:49:11.176Z,100653.49
2018-11-12T03:51:41.445Z,100665.05
2018-11-12T03:54:11.186Z,100670.29
2018-11-12T03:56:40.843Z,100678.68
2018-11-12T03:59:10.697Z,100644.86
2018-11-12T04:01:45.475Z,100622.10
2018-11-12T04:04:16.700Z,100631.56
2018-11-12T04:06:47.070Z,100646.80
2018-11-12T04:09:16.737Z,100653.89
2018-11-12T04:11:46.590Z,100645.07
2018-11-12T04:14:16.303Z,100644.61
2018-11-12T04:16:46.203Z,100631.17
2018-11-12T04:19:15.912Z,100649.41
2018-11-12T04:21:45.645Z,100646.38
2018-11-12T04:24:15.413Z,100612.09
2018-11-12T04:26:45.107Z,100624.98
2018-11-12T04:29:14.785Z,100628.09
2018-11-12T04:31:44.559Z,100625.92
2018-11-12T04:34:14.391Z,100600.28
2018-11-12T04:36:44.143Z,100604.19
2018-11-12T04:39:13.849Z,100612.49
2018-11-12T04:41:43.699Z,100620.30
2018-11-12T04:44:13.404Z,100629.40
2018-11-12T04:46:43.179Z,100626.83
2018-11-12T04:49:12.861Z,100618.09
2018-11-12T04:51:42.610Z,100615.02
2018-11-12T04:54:12.333Z,100615.84
2018-11-12T04:56:42.139Z,100621.67
2018-11-12T04:59:11.860Z,100608.67
2018-11-12T05:01:41.596Z,100599.85
2018-11-12T05:04:11.316Z,100604.69
2018-11-12T05:06:40.974Z,100613.33
2018-11-12T05:09:11.684Z,100613.69
2018-11-12T05:11:41.669Z,100618.17
2018-11-12T05:14:11.392Z,100612.09
2018-11-12T05:16:41.218Z,100611.59
2018-11-12T05:19:10.992Z,100614.19
2018-11-12T05:21:40.759Z,100626.00
2018-11-12T05:24:10.701Z,100629.91
2018-11-12T05:26:40.473Z,100633.30
2018-11-12T05:29:10.176Z,100623.37
2018-11-12T05:31:39.951Z,100621.27
2018-11-12T05:34:09.840Z,100619.47
2018-11-12T05:36:39.587Z,100618.20
2018-11-12T05:39:12.798Z,100616.91
2018-11-12T05:41:42.707Z,100611.59
2018-11-12T05:44:12.477Z,100595.59
2018-11-12T05:46:42.185Z,100588.16
2018-11-12T05:49:18.522Z,100583.89
2018-11-12T05:51:48.444Z,100587.39
2018-11-12T05:54:18.140Z,100599.50
2018-11-12T05:56:47.861Z,100605.67
2018-11-12T05:59:17.804Z,100599.53
2018-11-12T06:01:47.659Z,100598.67
2018-11-12T06:04:17.397Z,100598.59
2018-11-12T06:06:47.249Z,100594.19
2018-11-12T06:09:16.980Z,100589.53
2018-11-12T06:11:46.690Z,100586.42
2018-11-12T06:14:16.461Z,100592.59
2018-11-12T06:16:46.226Z,100604.80
2018-11-12T06:19:15.979Z,100594.30
2018-11-12T06:21:45.724Z,100601.23
2018-11-12T06:24:15.608Z,100602.53
2018-11-12T06:26:45.377Z,100603.83
2018-11-12T06:29:15.206Z,100595.70
2018-11-12T06:31:45.549Z,100598.20
2018-11-12T06:34:15.283Z,100597.77
2018-11-12T06:36:45.120Z,100596.89
2018-11-12T06:39:15.165Z,100587.29
2018-11-12T06:41:44.927Z,100583.83
2018-11-12T06:44:14.700Z,100576.48
2018-11-12T06:46:44.528Z,100569.16
2018-11-12T06:49:14.459Z,100569.19
2018-11-12T06:51:44.324Z,100570.06
2018-11-12T06:54:14.075Z,100551.86
2018-11-12T06:56:43.858Z,100557.53
2018-11-12T06:59:13.633Z,100563.66
2018-11-12T07:01:43.358Z,100561.89
2018-11-12T07:04:13.162Z,100566.27
2018-11-12T07:06:42.905Z,100569.52
2018-11-12T07:09:13.736Z,100552.92
2018-11-12T07:11:43.653Z,100562.92
2018-11-12T07:14:13.445Z,100569.54
2018-11-12T07:16:43.154Z,100566.10
2018-11-12T07:19:12.930Z,100564.25
2018-11-12T07:21:42.804Z,100549.88
2018-11-12T07:24:12.784Z,100551.19
2018-11-12T07:26:42.627Z,100547.75
2018-11-12T07:29:12.417Z,100547.75
2018-11-12T07:31:42.294Z,100546.81
2018-11-12T07:34:12.048Z,100544.16
2018-11-12T07:36:42.090Z,100543.66
2018-11-12T07:39:12.309Z,100544.92
2018-11-12T07:41:42.021Z,100550.56
2018-11-12T07:44:11.830Z,100548.89
2018-11-12T07:46:41.577Z,100556.36
2018-11-12T07:49:11.306Z,100560.75
2018-11-12T07:51:41.172Z,100554.25
2018-11-12T07:54:10.919Z,100557.34
2018-11-12T07:56:40.740Z,100558.18
2018-11-12T07:59:10.739Z,100549.11
2018-11-12T08:01:40.497Z,100549.68
2018-11-12T08:04:10.542Z,100554.94
2018-11-12T08:06:40.542Z,100549.63
2018-11-12T08:09:11.606Z,100553.20
2018-11-12T08:11:41.866Z,100551.44
2018-11-12T08:14:11.768Z,100550.66
2018-11-12T08:16:41.633Z,100543.34
2018-11-12T08:19:11.451Z,100540.23
2018-11-12T08:21:41.401Z,100532.42
2018-11-12T08:24:11.193Z,100532.46
2018-11-12T08:26:40.861Z,100522.09
2018-11-12T08:29:10.603Z,100513.42
2018-11-12T08:31:40.329Z,100508.25
2018-11-12T08:34:10.120Z,100493.50
2018-11-12T08:36:40.721Z,100502.14
2018-11-12T08:39:10.511Z,100519.50
2018-11-12T08:41:40.893Z,100523.02
2018-11-12T08:46:47.322Z,100519.97
2018-11-12T08:49:17.215Z,100516.55
2018-11-12T08:51:49.633Z,100517.93
2018-11-12T08:54:19.753Z,100517.58
2018-11-12T08:56:49.546Z,100518.91
2018-11-12T08:59:19.477Z,100525.86
2018-11-12T09:01:49.114Z,100536.26
2018-11-12T09:04:18.992Z,100538.85
2018-11-12T09:06:48.970Z,100535.43
2018-11-12T09:09:19.492Z,100540.68
2018-11-12T09:11:49.274Z,100536.78
2018-11-12T09:14:19.256Z,100538.04
2018-11-12T09:16:49.500Z,100546.76
2018-11-12T09:19:19.489Z,100537.69
2018-11-12T09:21:50.146Z,100544.66
2018-11-12T09:24:20.321Z,100550.33
2018-11-12T09:26:50.084Z,100552.91
2018-11-12T09:29:20.002Z,100550.30
2018-11-12T09:31:49.852Z,100549.44
2018-11-12T09:34:21.656Z,100545.53
2018-11-12T09:36:51.531Z,100539.88
2018-11-12T09:39:21.272Z,100527.19
2018-11-12T09:41:51.021Z,100516.20
2018-11-12T09:44:20.791Z,100517.84
2018-11-12T09:46:50.630Z,100521.96
2018-11-12T09:49:20.333Z,100526.73
2018-11-12T09:51:50.221Z,100531.52
2018-11-12T09:54:20.060Z,100527.55
2018-11-12T09:56:49.810Z,100532.34
2018-11-12T09:59:19.582Z,100526.59
2018-11-12T10:01:49.882Z,100525.70
2018-11-12T10:04:26.739Z,100528.63
2018-11-12T10:06:57.062Z,100522.63
2018-11-12T10:09:27.831Z,100515.73
2018-11-12T10:11:56.826Z,100521.00
2018-11-12T10:14:27.632Z,100523.74
2018-11-12T10:16:57.928Z,100531.46
2018-11-12T10:19:24.184Z,100536.38
2018-11-12T10:21:54.272Z,100537.80
2018-11-12T10:24:23.998Z,100538.15
2018-11-12T10:26:53.739Z,100534.06
2018-11-12T10:29:23.579Z,100531.66
2018-11-12T10:31:53.332Z,100529.95
2018-11-12T10:34:23.152Z,100527.25
2018-11-12T10:36:52.835Z,100523.84
2018-11-12T10:39:22.598Z,100517.70
2018-11-12T10:41:52.264Z,100521.77
2018-11-12T10:44:22.055Z,100513.47
2018-11-12T10:46:51.767Z,100528.48
2018-11-12T10:49:21.545Z,100521.13
2018-11-12T10:51:51.409Z,100528.43
2018-11-12T10:54:21.397Z,100533.48
2018-11-12T10:56:50.972Z,100534.34
2018-11-12T10:59:20.645Z,100533.98
2018-11-12T11:02:57.055Z,100538.63
2018-11-12T11:05:26.869Z,100536.77
2018-11-12T11:07:56.594Z,100542.60
2018-11-12T11:10:27.475Z,100543.38
2018-11-12T11:12:58.546Z,100546.59
2018-11-12T11:15:28.784Z,100544.36
2018-11-12T11:17:58.425Z,100553.72
2018-11-12T11:20:28.320Z,100549.57
2018-11-12T11:22:58.355Z,100569.53
2018-11-12T11:25:28.147Z,100564.49
2018-11-12T11:27:57.912Z,100560.91
2018-11-12T11:30:27.596Z,100560.09
2018-11-12T11:32:57.247Z,100546.81
2018-11-12T11:35:27.053Z,100537.80
2018-11-12T11:37:56.763Z,100531.73
2018-11-12T11:40:27.432Z,100532.28
2018-11-12T11:42:57.047Z,100533.41
2018-11-12T11:45:26.810Z,100542.31
2018-11-12T11:47:56.560Z,100537.45
2018-11-12T11:50:27.677Z,100532.41
2018-11-12T11:52:57.246Z,100526.37
2018-11-12T11:55:26.908Z,100532.77
2018-11-12T11:57:56.777Z,100534.28
2018-11-12T12:00:28.234Z,100540.36
2018-11-12T12:02:59.165Z,100549.82
2018-11-12T12:05:29.237Z,100558.20
2018-11-12T12:07:59.294Z,100559.67
2018-11-12T12:10:31.773Z,100546.19
2018-11-12T12:13:01.473Z,100548.82
2018-11-12T12:15:31.158Z,100553.19
2018-11-12T12:18:00.841Z,100555.56
2018-11-12T12:20:30.504Z,100554.85
2018-11-12T12:23:00.201Z,100543.95
2018-11-12T12:25:36.729Z,100541.74
2018-11-12T12:28:06.964Z,100555.23
2018-11-12T12:30:37.490Z,100559.42
2018-11-12T12:33:07.190Z,100551.52
2018-11-12T12:35:37.084Z,100549.56
2018-11-12T12:38:07.524Z,100541.52
2018-11-12T12:40:37.310Z,100545.24
2018-11-12T12:43:07.182Z,100549.04
2018-11-12T12:45:37.035Z,100549.85
2018-11-12T12:48:06.749Z,100545.17
2018-11-12T12:50:36.386Z,100548.59
2018-11-12T12:53:06.767Z,100561.64
2018-11-12T12:55:36.604Z,100560.20
2018-11-12T12:58:06.399Z,100568.72
2018-11-12T13:00:36.128Z,100573.52
2018-11-12T13:03:05.960Z,100575.38
2018-11-12T13:05:35.751Z,100571.83
2018-11-12T13:08:05.673Z,100577.82
2018-11-12T13:10:35.415Z,100583.61
2018-11-12T13:13:08.107Z,100614.97
2018-11-12T13:15:38.029Z,100612.28
2018-11-12T13:18:07.867Z,100633.37
2018-11-12T13:20:37.558Z,100642.23
2018-11-12T13:23:07.474Z,100656.70
2018-11-12T13:25:37.213Z,100645.98
2018-11-12T13:28:07.203Z,100651.38
2018-11-12T13:30:36.868Z,100638.06
2018-11-12T13:33:07.622Z,100661.17
2018-11-12T13:35:37.304Z,100671.25
2018-11-12T13:38:07.372Z,100684.35
2018-11-12T13:40:37.094Z,100695.31
2018-11-12T13:43:06.920Z,100700.62
2018-11-12T13:45:36.680Z,100689.38
2018-11-12T13:48:07.766Z,100691.12
2018-11-12T13:50:38.153Z,100694.20
2018-11-12T13:53:07.950Z,100708.16
2018-11-12T13:55:37.615Z,100708.67
2018-11-12T13:58:07.373Z,100697.81
2018-11-12T14:00:37.183Z,100705.59
2018-11-12T14:03:07.195Z,100710.00
2018-11-12T14:05:43.427Z,100717.84
2018-11-12T14:08:13.179Z,100708.71
2018-11-12T14:10:43.646Z,100719.16
2018-11-12T14:13:16.138Z,100713.94
2018-11-12T14:15:45.911Z,100716.55
2018-11-12T14:18:16.118Z,100729.61
2018-11-12T14:20:45.969Z,100739.17
2018-11-12T14:23:15.704Z,100730.02
2018-11-12T14:25:45.458Z,100730.45
2018-11-12T14:28:15.254Z,100743.93
2018-11-12T14:30:45.178Z,100743.42
2018-11-12T14:33:15.045Z,100750.39
2018-11-12T14:35:44.758Z,100740.81
2018-11-12T14:38:14.819Z,100734.73
2018-11-12T14:40:44.629Z,100733.41
2018-11-12T14:43:14.333Z,100737.36
2018-11-12T14:45:44.260Z,100742.06
2018-11-12T14:48:13.985Z,100742.95
2018-11-12T14:50:43.691Z,100741.63
2018-11-12T14:53:13.412Z,100739.83
2018-11-12T14:55:43.242Z,100743.36
2018-11-12T14:58:12.913Z,100742.48
2018-11-12T15:00:42.598Z,100752.05
2018-11-12T15:03:12.399Z,100761.63
2018-11-12T15:05:42.081Z,100776.38
2018-11-12T15:08:12.602Z,100780.80
2018-11-12T15:10:42.366Z,100794.23
2018-11-12T15:13:12.342Z,100797.19
2018-11-12T15:15:42.081Z,100804.16
2018-11-12T15:18:11.874Z,100802.42
2018-11-12T15:20:41.825Z,100805.87
2018-11-12T15:23:11.590Z,100806.36
2018-11-12T15:25:41.626Z,100815.84
2018-11-12T15:28:11.784Z,100817.63
2018-11-12T15:30:41.639Z,100815.84
2018-11-12T15:33:11.346Z,100821.45
2018-11-12T15:35:41.795Z,100822.27
2018-11-12T15:38:11.648Z,100821.86
2018-11-12T15:40:41.401Z,100822.17
2018-11-12T15:43:11.386Z,100830.94
2018-11-12T15:45:41.038Z,100846.63
2018-11-12T15:48:10.786Z,100843.54
2018-11-12T15:50:41.438Z,100847.34
2018-11-12T15:53:11.169Z,100853.86
2018-11-12T15:55:40.934Z,100847.78
2018-11-12T15:58:10.910Z,100851.28
2018-11-12T16:00:40.661Z,100863.87
2018-11-12T16:03:10.365Z,100866.92
2018-11-12T16:05:40.260Z,100858.58
2018-11-12T16:08:10.829Z,100869.81
2018-11-12T16:10:40.522Z,100882.04
2018-11-12T16:13:10.190Z,100879.30
2018-11-12T16:15:39.908Z,100875.42
2018-11-12T16:18:09.622Z,100893.30
2018-11-12T16:20:39.299Z,100902.98
2018-11-12T16:23:09.247Z,100917.23
2018-11-12T16:25:39.050Z,100918.06
2018-11-12T16:28:10.387Z,100920.20
2018-11-12T16:30:40.147Z,100925.59
2018-11-12T16:33:10.024Z,100932.14
2018-11-12T16:35:39.793Z,100939.75
2018-11-12T16:38:09.799Z,100949.73
2018-11-12T16:40:39.649Z,100951.20
2018-11-12T16:43:09.489Z,100969.01
2018-11-12T16:45:39.481Z,100972.95
2018-11-12T16:48:09.523Z,100984.64
2018-11-12T16:50:40.087Z,100981.72
2018-11-12T16:53:09.989Z,100984.92
2018-11-12T16:55:40.352Z,100978.55
2018-11-12T16:58:10.090Z,100978.08
2018-11-12T17:00:39.854Z,100978.28
2018-11-12T17:03:10.231Z,100971.92
2018-11-12T17:05:39.986Z,100988.45
2018-11-12T17:08:09.764Z,100995.58
2018-11-12T17:10:39.563Z,100995.49
2018-11-12T17:13:09.242Z,101002.65
2018-11-12T17:15:40.134Z,101001.34
2018-11-12T17:18:10.229Z,101022.50
2018-11-12T17:20:40.153Z,101033.05
2018-11-12T17:23:11.094Z,101037.56
2018-11-12T17:25:40.875Z,101036.89
2018-11-12T17:28:10.713Z,101036.50
2018-11-12T17:30:41.405Z,101039.95
2018-11-12T17:33:11.429Z,101050.11
2018-11-12T17:35:41.416Z,101040.80
2018-11-12T17:38:12.033Z,101046.29
2018-11-12T17:40:41.763Z,101061.20
2018-11-12T17:43:11.520Z,101071.23
2018-11-12T17:45:41.829Z,101062.70
2018-11-12T17:48:13.292Z,101074.17
2018-11-12T17:50:43.047Z,101077.30
2018-11-12T17:53:12.730Z,101074.86
2018-11-12T17:55:42.693Z,101079.82
2018-11-12T17:58:12.446Z,101094.50
2018-11-12T18:00:42.294Z,101104.19
2018-11-12T18:03:12.083Z,101108.97
2018-11-12T18:05:43.273Z,101102.84
2018-11-12T18:08:13.166Z,101091.12
2018-11-12T18:10:42.907Z,101088.41
2018-11-12T18:13:12.650Z,101095.69
2018-11-12T18:15:42.806Z,101109.15
2018-11-12T18:18:12.817Z,101106.60
2018-11-12T18:20:49.830Z,101109.34
2018-11-12T18:23:21.849Z,101097.28
2018-11-12T18:25:52.224Z,101105.10
2018-11-12T18:28:28.309Z,101123.25
2018-11-12T18:30:59.616Z,101126.81
2018-11-12T18:33:29.415Z,101123.95
2018-11-12T18:35:59.257Z,101128.25
2018-11-12T18:38:29.873Z,101125.26
2018-11-12T18:41:06.515Z,101124.30
2018-11-12T18:43:36.270Z,101141.23
2018-11-12T18:46:06.724Z,101148.23
2018-11-12T18:49:40.626Z,101148.98
2018-11-12T18:52:10.508Z,101149.37
2018-11-12T18:54:40.220Z,101147.25
2018-11-12T18:57:09.995Z,101142.36
2018-11-12T18:59:39.767Z,101143.41
2018-11-12T19:02:09.455Z,101153.73
2018-11-12T19:04:39.274Z,101147.89
2018-11-12T19:07:09.051Z,101151.45
2018-11-12T19:09:38.813Z,101154.30
2018-11-12T19:12:08.633Z,101159.60
2018-11-12T19:14:38.389Z,101164.60
2018-11-12T19:17:08.509Z,101158.31
2018-11-12T19:19:38.214Z,101165.98
2018-11-12T19:22:08.027Z,101174.59
2018-11-12T19:24:37.744Z,101189.09
2018-11-12T19:27:07.511Z,101192.11
2018-11-12T19:29:37.225Z,101174.59
2018-11-12T19:32:07.044Z,101155.25
2018-11-12T19:34:36.777Z,101162.45
2018-11-12T19:37:07.033Z,101155.41
2018-11-12T19:39:36.780Z,101160.66
2018-11-12T19:42:06.801Z,101167.95
2018-11-12T19:44:36.541Z,101179.22
2018-11-12T19:47:06.626Z,101174.45
2018-11-12T19:49:36.868Z,101176.02
2018-11-12T19:52:06.873Z,101186.97
2018-11-12T19:54:36.812Z,101180.02
2018-11-12T19:57:07.246Z,101187.16
2018-11-12T19:59:37.757Z,101189.16
2018-11-12T20:02:07.654Z,101184.26
2018-11-12T20:04:37.461Z,101193.29
2018-11-12T20:07:07.376Z,101187.73
2018-11-12T20:09:37.144Z,101189.37
2018-11-12T20:12:07.077Z,101191.18
2018-11-12T20:14:36.778Z,101200.17
2018-11-12T20:17:07.070Z,101189.08
2018-11-12T20:19:36.988Z,101195.20
2018-11-12T20:22:07.045Z,101186.89
2018-11-12T20:24:36.815Z,101179.56
2018-11-12T20:27:06.967Z,101172.91
2018-11-12T20:29:36.758Z,101181.36
2018-11-12T20:32:06.772Z,101183.40
2018-11-12T20:34:37.030Z,101198.42
2018-11-12T20:37:07.321Z,101206.87
2018-11-12T20:39:37.740Z,101214.91
2018-11-12T20:42:07.699Z,101206.97
2018-11-12T20:44:37.722Z,101202.19
2018-11-12T20:47:07.620Z,101208.34
2018-11-12T20:49:37.535Z,101214.97
2018-11-12T20:52:07.446Z,101210.72
2018-11-12T20:54:37.226Z,101211.17
2018-11-12T20:57:07.130Z,101209.93
2018-11-12T20:59:37.533Z,101210.36
2018-11-12T21:02:08.426Z,101216.84
2018-11-12T21:04:38.370Z,101222.20
2018-11-12T21:07:08.242Z,101226.52
2018-11-12T21:09:37.973Z,101224.75
2018-11-12T21:12:07.914Z,101223.92
2018-11-12T21:14:37.693Z,101225.25
2018-11-12T21:17:07.819Z,101227.86
2018-11-12T21:19:37.712Z,101223.92
2018-11-12T21:22:10.501Z,101217.00
2018-11-12T21:24:40.283Z,101222.94
2018-11-12T21:27:10.072Z,101227.13
2018-11-12T21:29:40.076Z,101241.93
2018-11-12T21:32:10.009Z,101248.42
2018-11-12T21:34:39.827Z,101244.09
2018-11-12T21:37:09.622Z,101236.00
2018-11-12T21:39:39.270Z,101227.39
2018-11-12T21:42:09.819Z,101226.55
2018-11-12T21:44:39.674Z,101219.67
2018-11-12T21:47:09.571Z,101227.39
2018-11-12T21:49:39.406Z,101237.73
2018-11-12T21:52:10.008Z,101244.88
2018-11-12T21:54:39.862Z,101246.55
2018-11-12T21:57:09.695Z,101245.05
2018-11-12T21:59:39.492Z,101240.92
2018-11-12T22:02:09.218Z,101237.73
2018-11-12T22:04:38.984Z,101230.20
2018-11-12T22:07:09.438Z,101230.06
2018-11-12T22:09:39.146Z,101235.59
2018-11-12T22:12:08.853Z,101240.30
2018-11-12T22:14:38.581Z,101233.36
2018-11-12T22:17:08.429Z,101230.33
2018-11-12T22:19:38.560Z,101224.26
2018-11-12T22:22:08.984Z,101233.42
2018-11-12T22:24:38.855Z,101251.52
2018-11-12T22:27:08.838Z,101257.21
2018-11-12T22:29:38.619Z,101261.47
2018-11-12T22:32:08.457Z,101271.80
2018-11-12T22:34:38.365Z,101269.08
2018-11-12T22:37:08.385Z,101267.69
2018-11-12T22:39:38.313Z,101274.07
2018-11-12T22:42:08.229Z,101282.41
2018-11-12T22:44:38.641Z,101279.83
2018-11-12T22:47:08.434Z,101274.97
2018-11-12T22:49:44.886Z,101279.79
2018-11-12T22:52:14.693Z,101275.38
2018-11-12T22:54:44.394Z,101285.56
2018-11-12T22:57:14.153Z,101283.15
2018-11-12T22:59:50.722Z,101294.89
2018-11-12T23:02:20.452Z,101293.55
2018-11-12T23:04:50.326Z,101294.09
2018-11-12T23:07:20.249Z,101285.39
2018-11-12T23:09:49.954Z,101274.48
2018-11-12T23:12:19.844Z,101268.73
2018-11-12T23:14:49.541Z,101263.48
2018-11-12T23:17:19.237Z,101252.53
2018-11-12T23:19:49.188Z,101247.41
2018-11-12T23:22:18.836Z,101254.22
2018-11-12T23:24:48.617Z,101257.16
2018-11-12T23:27:18.305Z,101264.00
2018-11-12T23:29:48.102Z,101262.98
2018-11-12T23:32:17.835Z,101263.19
2018-11-12T23:34:47.498Z,101268.13
2018-11-12T23:37:17.345Z,101265.38
2018-11-12T23:39:47.139Z,101268.26
2018-11-12T23:42:16.866Z,101275.25
2018-11-12T23:44:46.775Z,101271.52
2018-11-12T23:47:16.533Z,101274.32
2018-11-12T23:49:46.296Z,101284.16
2018-11-12T23:52:16.031Z,101287.53
2018-11-12T23:54:45.753Z,101278.36
2018-11-12T23:57:15.643Z,101277.41
2018-11-12T23:59:45.335Z,101278.17
